Time;durP1;ratioP1;P1;durP2;ratioP2;P2;SDS_P1;SDS_P2;PMS_P1;PMS_P2;Temp;Humidity;BMP_temperature;BMP_pressure;BME280_temperature;BME280_humidity;BME280_pressure;Samples;Min_cycle;Max_cycle;Signal;HPM_P1;HPM_P2
2021/08/11 00:00:12;;;;;;;3.88;3.20;;;18.60;99.40;;;;;;4972869;28;20034;-71
2021/08/11 00:02:40;;;;;;;3.88;3.58;;;18.70;99.90;;;;;;4974142;28;20073;-72
2021/08/11 00:05:08;;;;;;;5.60;3.72;;;18.80;99.80;;;;;;4973827;28;20114;-70
2021/08/11 00:07:35;;;;;;;4.28;3.88;;;18.90;99.40;;;;;;4973892;28;20026;-72
2021/08/11 00:10:05;;;;;;;4.32;3.72;;;19.00;99.10;;;;;;4974139;28;20023;-71
2021/08/11 00:12:32;;;;;;;4.10;3.70;;;19.10;99.20;;;;;;4973637;28;20523;-72
2021/08/11 00:15:00;;;;;;;5.35;3.97;;;19.20;98.90;;;;;;4972503;28;20026;-72
2021/08/11 00:17:27;;;;;;;4.70;3.78;;;19.20;97.80;;;;;;4973896;28;20027;-71
2021/08/11 00:19:56;;;;;;;4.22;3.67;;;19.40;98.40;;;;;;4973736;28;20030;-70
2021/08/11 00:22:23;;;;;;;5.47;3.67;;;19.50;98.50;;;;;;4972452;28;20031;-71
2021/08/11 00:24:51;;;;;;;5.50;4.20;;;19.60;97.60;;;;;;4973452;28;20114;-71
2021/08/11 00:27:18;;;;;;;3.95;3.63;;;19.70;97.90;;;;;;4973646;28;20102;-71
2021/08/11 00:29:45;;;;;;;6.35;3.60;;;19.70;97.70;;;;;;4972556;28;20041;-70
2021/08/11 00:32:13;;;;;;;4.75;3.40;;;19.80;97.30;;;;;;4973720;28;20484;-71
2021/08/11 00:34:41;;;;;;;5.75;3.10;;;19.90;97.10;;;;;;4973640;28;20023;-71
2021/08/11 00:37:09;;;;;;;4.57;2.88;;;20.00;96.80;;;;;;4974950;28;20031;-71
2021/08/11 00:39:39;;;;;;;3.33;2.85;;;20.00;97.00;;;;;;4977413;28;20484;-71
2021/08/11 00:42:07;;;;;;;3.35;3.03;;;20.00;96.60;;;;;;4976186;28;20035;-72
2021/08/11 00:44:35;;;;;;;3.53;2.97;;;20.10;96.70;;;;;;4977267;28;20086;-70
2021/08/11 00:47:05;;;;;;;3.50;3.10;;;20.20;96.30;;;;;;4977314;28;20022;-70
2021/08/11 00:49:33;;;;;;;3.10;2.80;;;20.20;96.30;;;;;;4977514;28;20022;-72
2021/08/11 00:52:00;;;;;;;3.15;2.85;;;20.30;96.30;;;;;;4977230;28;20034;-71
2021/08/11 00:54:30;;;;;;;4.13;3.05;;;20.30;95.80;;;;;;4977270;28;20023;-71
2021/08/11 00:56:58;;;;;;;4.43;2.80;;;20.40;95.90;;;;;;4977267;28;20023;-71
2021/08/11 00:59:28;;;;;;;4.03;2.70;;;20.50;96.10;;;;;;4977025;28;20164;-72
2021/08/11 01:01:56;;;;;;;5.23;3.00;;;20.70;95.60;;;;;;4977074;28;20105;-73
2021/08/11 01:04:24;;;;;;;3.58;2.67;;;20.60;95.80;;;;;;4976915;28;20101;-73
2021/08/11 01:06:52;;;;;;;3.33;2.70;;;20.70;95.60;;;;;;4976840;28;20419;-72
2021/08/11 01:09:20;;;;;;;2.95;2.70;;;20.70;95.00;;;;;;4976843;28;20046;-72
2021/08/11 01:11:52;;;;;;;3.50;3.00;;;20.60;95.30;;;;;;4976674;28;20046;-72
2021/08/11 01:14:20;;;;;;;3.13;2.83;;;20.70;95.30;;;;;;4976953;28;20511;-71
2021/08/11 01:16:47;;;;;;;6.43;3.00;;;20.70;95.10;;;;;;4976707;28;20067;-70
2021/08/11 01:19:17;;;;;;;4.30;3.00;;;20.70;94.90;;;;;;4976713;28;20050;-73
2021/08/11 01:22:08;;;;;;;3.53;3.00;;;20.80;95.40;;;;;;4976959;28;20484;-72
2021/08/11 01:24:58;;;;;;;3.10;2.80;;;20.90;95.20;;;;;;4976635;28;20037;-73
2021/08/11 01:27:55;;;;;;;3.42;2.88;;;21.00;95.00;;;;;;4976597;28;20165;-74
2021/08/11 01:30:34;;;;;;;2.85;2.58;;;21.10;94.80;;;;;;4975201;28;20030;-74
2021/08/11 01:33:45;;;;;;;3.63;2.63;;;21.30;95.20;;;;;;4976387;28;20022;-73
2021/08/11 01:36:37;;;;;;;4.25;2.70;;;21.40;94.30;;;;;;4939708;28;20030;-73
2021/08/11 01:39:18;;;;;;;2.80;2.60;;;21.40;94.20;;;;;;4975086;28;20041;-74
2021/08/11 01:42:07;;;;;;;3.13;2.40;;;21.50;95.10;;;;;;4974969;28;20372;-75
2021/08/11 01:44:59;;;;;;;2.83;2.58;;;21.50;94.60;;;;;;4958926;28;20042;-73
2021/08/11 01:47:33;;;;;;;3.38;2.90;;;21.70;94.70;;;;;;4958342;28;20126;-71
2021/08/11 01:50:01;;;;;;;4.68;2.50;;;21.80;94.60;;;;;;4976106;28;20101;-71
2021/08/11 01:52:29;;;;;;;3.05;2.50;;;21.70;94.60;;;;;;4976147;28;20106;-72
2021/08/11 01:54:57;;;;;;;4.45;3.20;;;21.80;94.40;;;;;;4975999;28;20027;-72
2021/08/11 01:57:27;;;;;;;;;;;21.90;94.70;;;;;;4976446;28;20039;-76
2021/08/11 01:59:55;;;;;;;3.83;2.88;;;22.00;94.30;;;;;;4975910;28;19913;-74
2021/08/11 02:02:23;;;;;;;3.63;3.33;;;22.00;93.90;;;;;;4975833;28;20027;-74
2021/08/11 02:04:51;;;;;;;3.25;3.05;;;22.10;94.10;;;;;;4974966;28;20035;-74
2021/08/11 02:07:19;;;;;;;3.60;3.30;;;22.20;94.30;;;;;;4975703;28;20061;-74
2021/08/11 02:09:46;;;;;;;3.60;3.30;;;22.30;94.30;;;;;;4975760;28;20101;-77
2021/08/11 02:12:14;;;;;;;5.00;3.72;;;22.40;94.20;;;;;;4975566;28;20050;-75
2021/08/11 02:14:42;;;;;;;3.97;3.35;;;22.50;94.10;;;;;;4975635;28;20026;-73
2021/08/11 02:17:09;;;;;;;3.58;3.35;;;22.60;94.40;;;;;;4975717;28;20554;-72
2021/08/11 02:19:40;;;;;;;4.05;3.30;;;22.60;93.50;;;;;;4975642;28;20023;-73
2021/08/11 02:22:07;;;;;;;3.55;3.15;;;22.40;93.70;;;;;;4974314;28;20030;-73
2021/08/11 02:24:36;;;;;;;4.78;3.45;;;22.50;93.20;;;;;;4974264;28;20412;-74
2021/08/11 02:27:17;;;;;;;3.50;3.20;;;22.60;93.00;;;;;;4975586;28;20031;-73
2021/08/11 02:29:52;;;;;;;3.50;3.20;;;22.50;93.00;;;;;;4975517;28;20037;-73
2021/08/11 02:32:29;;;;;;;6.47;3.72;;;22.50;92.90;;;;;;4975415;28;20019;-73
2021/08/11 02:35:16;;;;;;;5.85;4.53;;;22.60;92.40;;;;;;4975508;28;20037;-73
2021/08/11 02:37:53;;;;;;;9.80;6.90;;;22.60;92.60;;;;;;4975339;28;20085;-73
2021/08/11 02:40:36;;;;;;;18.17;11.70;;;22.60;93.50;;;;;;4975317;28;20476;-73
2021/08/11 02:43:29;;;;;;;10.15;6.22;;;22.60;93.40;;;;;;4975249;28;20030;-73
2021/08/11 02:46:03;;;;;;;13.98;8.38;;;22.70;93.30;;;;;;4965031;28;20042;-73
2021/08/11 02:48:31;;;;;;;7.22;3.47;;;22.80;93.10;;;;;;4973744;28;20027;-73
2021/08/11 02:51:00;;;;;;;11.85;6.65;;;22.80;92.50;;;;;;4975066;28;20027;-74
2021/08/11 02:53:31;;;;;;;3.53;3.22;;;22.80;93.10;;;;;;4975784;28;20564;-74
2021/08/11 02:55:58;;;;;;;4.00;2.92;;;22.80;92.40;;;;;;4975020;28;20026;-73
2021/08/11 02:58:26;;;;;;;6.00;4.32;;;22.80;92.90;;;;;;4974406;28;20566;-72
2021/08/11 03:00:55;;;;;;;4.20;3.35;;;22.90;92.60;;;;;;4973709;28;20531;-72
2021/08/11 03:03:23;;;;;;;5.72;4.05;;;22.80;92.60;;;;;;4973968;28;20031;-74
2021/08/11 03:05:50;;;;;;;2.92;2.60;;;23.00;93.00;;;;;;4974904;28;20019;-74
2021/08/11 03:08:18;;;;;;;3.50;3.20;;;23.00;92.70;;;;;;4974767;28;20059;-75
2021/08/11 03:10:47;;;;;;;4.78;3.50;;;23.10;92.30;;;;;;4974870;28;20102;-73
2021/08/11 03:13:15;;;;;;;4.50;3.10;;;23.00;92.70;;;;;;4973237;28;20134;-73
2021/08/11 03:15:46;;;;;;;3.40;3.10;;;23.10;92.50;;;;;;4974743;28;20016;-74
2021/08/11 03:18:16;;;;;;;3.72;3.42;;;23.00;92.40;;;;;;4974636;28;20022;-73
2021/08/11 03:20:44;;;;;;;3.30;3.00;;;23.20;92.60;;;;;;4974675;28;20035;-74
2021/08/11 03:23:14;;;;;;;7.88;3.40;;;23.30;92.70;;;;;;4973052;28;20031;-74
2021/08/11 03:25:45;;;;;;;3.40;2.97;;;23.40;92.40;;;;;;4973097;28;20114;-73
2021/08/11 03:28:12;;;;;;;5.97;3.03;;;23.60;92.40;;;;;;4974235;28;20078;-73
2021/08/11 03:30:42;;;;;;;2.95;2.75;;;23.60;92.30;;;;;;4974392;28;20049;-74
2021/08/11 03:33:09;;;;;;;3.53;2.60;;;23.60;91.70;;;;;;4974231;28;20027;-74
2021/08/11 03:35:37;;;;;;;3.42;3.13;;;23.40;91.60;;;;;;4974224;28;20023;-74
2021/08/11 03:38:04;;;;;;;3.33;2.80;;;23.50;92.10;;;;;;4974313;28;20019;-74
2021/08/11 03:40:32;;;;;;;4.28;3.65;;;23.30;90.80;;;;;;4974349;28;20038;-75
2021/08/11 03:42:59;;;;;;;4.18;2.92;;;23.40;91.40;;;;;;4974246;28;20035;-75
2021/08/11 03:45:26;;;;;;;4.25;3.05;;;23.50;92.00;;;;;;4972706;28;20023;-74
2021/08/11 03:47:55;;;;;;;4.50;2.75;;;23.70;91.90;;;;;;4974056;28;20018;-73
2021/08/11 03:50:25;;;;;;;3.03;2.72;;;23.70;91.80;;;;;;4974018;28;20038;-74
2021/08/11 03:52:53;;;;;;;3.00;2.80;;;23.80;91.10;;;;;;4973920;28;20042;-74
2021/08/11 03:55:21;;;;;;;3.65;2.72;;;23.80;91.60;;;;;;4972609;28;20027;-74
2021/08/11 03:57:48;;;;;;;3.15;2.78;;;23.80;90.90;;;;;;4972595;28;20099;-74
2021/08/11 04:00:15;;;;;;;4.40;3.22;;;23.90;91.30;;;;;;4973917;28;20054;-72
2021/08/11 04:02:43;;;;;;;3.88;3.55;;;23.90;90.90;;;;;;4973958;28;20030;-74
2021/08/11 04:05:11;;;;;;;5.28;2.80;;;23.90;91.50;;;;;;4973808;28;20027;-73
2021/08/11 04:07:38;;;;;;;3.70;2.90;;;23.90;90.20;;;;;;4973657;28;20026;-74
2021/08/11 04:10:08;;;;;;;3.90;3.60;;;23.90;90.40;;;;;;4972411;28;20045;-73
2021/08/11 04:12:36;;;;;;;3.13;2.83;;;23.80;88.90;;;;;;4977256;28;20050;-73
2021/08/11 04:15:05;;;;;;;4.18;3.10;;;23.80;90.30;;;;;;4977841;28;20029;-71
2021/08/11 04:17:32;;;;;;;3.20;2.80;;;23.90;90.20;;;;;;4976152;28;20027;-73
2021/08/11 04:20:00;;;;;;;4.63;3.10;;;23.90;89.40;;;;;;4977514;28;20031;-74
2021/08/11 04:22:27;;;;;;;3.83;2.72;;;23.90;90.10;;;;;;4976116;28;20555;-74
2021/08/11 04:24:54;;;;;;;3.42;3.00;;;23.90;89.90;;;;;;4977425;28;20480;-73
2021/08/11 04:27:22;;;;;;;4.35;2.78;;;23.80;89.20;;;;;;4976095;28;20031;-74
2021/08/11 04:29:52;;;;;;;3.63;2.90;;;23.80;88.80;;;;;;4977258;28;20058;-75
2021/08/11 04:32:19;;;;;;;4.80;3.10;;;23.90;89.10;;;;;;4976032;28;20181;-75
2021/08/11 04:34:47;;;;;;;3.08;2.80;;;23.90;88.00;;;;;;4976021;28;20019;-75
2021/08/11 04:37:17;;;;;;;3.53;3.10;;;23.90;89.10;;;;;;4977162;28;20472;-75
2021/08/11 04:39:44;;;;;;;4.10;2.95;;;23.80;88.80;;;;;;4975927;28;20027;-75
2021/08/11 04:42:12;;;;;;;2.92;2.72;;;23.80;89.80;;;;;;4975890;28;20035;-75
2021/08/11 04:44:39;;;;;;;4.20;3.80;;;23.70;90.20;;;;;;4977302;28;20031;-76
2021/08/11 04:47:07;;;;;;;3.08;2.70;;;23.50;88.50;;;;;;4977084;28;20030;-75
2021/08/11 04:49:34;;;;;;;4.55;2.80;;;23.50;89.00;;;;;;4977257;28;20110;-75
2021/08/11 04:52:02;;;;;;;3.38;3.08;;;23.50;88.40;;;;;;4975900;28;20026;-73
2021/08/11 04:54:29;;;;;;;3.58;2.83;;;23.40;89.20;;;;;;4977020;28;20502;-74
2021/08/11 04:56:56;;;;;;;4.45;2.75;;;23.40;89.90;;;;;;4976997;28;20030;-76
2021/08/11 04:59:24;;;;;;;4.13;2.90;;;23.50;88.30;;;;;;4977102;28;20443;-74
2021/08/11 05:01:51;;;;;;;3.47;3.17;;;23.40;88.00;;;;;;4977041;28;20050;-74
2021/08/11 05:04:18;;;;;;;3.38;3.08;;;23.40;88.10;;;;;;4976932;28;20023;-74
2021/08/11 05:06:46;;;;;;;3.25;2.65;;;23.30;88.40;;;;;;4975392;28;20117;-74
2021/08/11 05:09:13;;;;;;;3.30;2.88;;;23.20;89.60;;;;;;4976971;28;20047;-73
2021/08/11 05:11:41;;;;;;;3.30;2.50;;;23.20;89.60;;;;;;4976783;28;20082;-75
2021/08/11 05:14:08;;;;;;;2.75;2.55;;;23.10;88.70;;;;;;4976813;28;20101;-75
2021/08/11 05:16:36;;;;;;;3.70;2.60;;;23.20;88.30;;;;;;4975433;28;20029;-75
2021/08/11 05:19:03;;;;;;;4.47;2.88;;;23.20;89.30;;;;;;4976872;28;20110;-74
2021/08/11 05:21:32;;;;;;;4.07;2.60;;;23.00;88.30;;;;;;4976427;28;20049;-75
2021/08/11 05:23:59;;;;;;;5.95;2.70;;;22.80;88.80;;;;;;4976722;28;20050;-76
2021/08/11 05:26:27;;;;;;;3.85;2.42;;;22.80;88.80;;;;;;4976681;28;20058;-75
2021/08/11 05:28:54;;;;;;;3.60;2.47;;;22.90;88.50;;;;;;4976540;28;20073;-74
2021/08/11 05:31:21;;;;;;;2.42;2.20;;;22.90;87.60;;;;;;4975141;28;20023;-74
2021/08/11 05:33:49;;;;;;;3.20;2.58;;;23.00;88.60;;;;;;4976380;28;20050;-77
2021/08/11 05:36:16;;;;;;;3.90;2.40;;;23.00;87.50;;;;;;4976396;28;20023;-76
2021/08/11 05:38:43;;;;;;;3.47;3.10;;;23.00;88.40;;;;;;4976802;28;20038;-76
2021/08/11 05:41:11;;;;;;;3.22;2.90;;;23.00;87.70;;;;;;4976617;28;20054;-77
2021/08/11 05:43:38;;;;;;;3.83;2.60;;;23.00;86.90;;;;;;4974940;28;20050;-78
2021/08/11 05:46:06;;;;;;;3.05;2.70;;;23.00;87.70;;;;;;4976263;28;20030;-78
2021/08/11 05:48:34;;;;;;;3.60;3.22;;;23.00;88.30;;;;;;4976023;28;20031;-78
2021/08/11 05:51:01;;;;;;;6.43;2.90;;;23.00;89.90;;;;;;4974862;28;20023;-78
2021/08/11 05:53:29;;;;;;;7.18;3.05;;;22.90;88.20;;;;;;4976206;28;20014;-76
2021/08/11 05:55:56;;;;;;;6.35;2.88;;;22.80;88.10;;;;;;4976081;28;20019;-78
2021/08/11 05:58:23;;;;;;;3.50;2.50;;;22.70;86.80;;;;;;4974631;28;20023;-76
2021/08/11 06:00:51;;;;;;;5.05;3.30;;;22.70;87.00;;;;;;4974574;28;20082;-75
2021/08/11 06:03:18;;;;;;;3.47;2.58;;;22.60;87.50;;;;;;4975945;28;20026;-76
2021/08/11 06:05:45;;;;;;;2.53;2.33;;;22.50;86.70;;;;;;4976053;28;20046;-76
2021/08/11 06:08:13;;;;;;;3.92;2.97;;;22.50;87.40;;;;;;4975809;28;20023;-77
2021/08/11 06:10:40;;;;;;;4.15;3.08;;;22.50;87.40;;;;;;4975905;28;20026;-77
2021/08/11 06:13:08;;;;;;;6.32;2.40;;;22.40;87.60;;;;;;4975396;28;20496;-77
2021/08/11 06:15:35;;;;;;;3.95;2.80;;;22.30;88.20;;;;;;4975805;28;20106;-76
2021/08/11 06:18:02;;;;;;;5.72;3.22;;;22.30;88.10;;;;;;4974268;28;20057;-77
2021/08/11 06:20:30;;;;;;;3.00;2.50;;;22.20;87.90;;;;;;4974381;28;20100;-74
2021/08/11 06:22:57;;;;;;;3.90;2.97;;;22.20;88.60;;;;;;4975831;28;20105;-74
2021/08/11 06:25:24;;;;;;;3.72;2.78;;;22.20;88.10;;;;;;4975539;28;20038;-75
2021/08/11 06:27:52;;;;;;;3.10;2.80;;;22.10;88.40;;;;;;4975395;28;20384;-74
2021/08/11 06:30:19;;;;;;;3.92;2.97;;;22.10;88.10;;;;;;4975349;28;20020;-74
2021/08/11 06:32:46;;;;;;;3.25;2.80;;;22.10;87.90;;;;;;4975285;28;20030;-75
2021/08/11 06:35:14;;;;;;;2.92;2.53;;;22.10;88.90;;;;;;4974504;28;20019;-75
2021/08/11 06:37:49;;;;;;;2.72;2.53;;;22.00;89.50;;;;;;4975409;28;20310;-74
2021/08/11 06:40:19;;;;;;;2.83;2.40;;;21.90;89.30;;;;;;4975294;28;20100;-75
2021/08/11 06:42:46;;;;;;;4.03;2.40;;;21.70;89.70;;;;;;4975165;28;20392;-75
2021/08/11 06:45:14;;;;;;;4.22;2.58;;;21.70;89.40;;;;;;4975154;28;20026;-72
2021/08/11 06:47:42;;;;;;;4.63;2.60;;;21.60;90.00;;;;;;4973762;28;20165;-76
2021/08/11 06:50:11;;;;;;;2.60;2.50;;;21.60;90.30;;;;;;4973669;28;20034;-76
2021/08/11 06:52:38;;;;;;;4.47;2.85;;;21.30;90.80;;;;;;4975047;28;20023;-77
2021/08/11 06:55:12;;;;;;;3.25;2.30;;;21.10;91.20;;;;;;4975111;28;20023;-77
2021/08/11 06:57:40;;;;;;;2.75;2.45;;;21.00;91.60;;;;;;4974880;28;20102;-77
2021/08/11 07:00:09;;;;;;;2.90;2.60;;;20.90;91.70;;;;;;4975091;28;20111;-76
2021/08/11 07:02:37;;;;;;;3.40;2.60;;;20.90;92.00;;;;;;4974789;28;20036;-76
2021/08/11 07:05:05;;;;;;;3.30;3.00;;;20.80;92.30;;;;;;4974728;28;20041;-77
2021/08/11 07:07:33;;;;;;;2.97;2.60;;;20.70;92.50;;;;;;4975884;28;20062;-79
2021/08/11 07:10:00;;;;;;;2.70;2.50;;;20.60;92.90;;;;;;4975538;28;20480;-79
2021/08/11 07:12:28;;;;;;;2.50;2.30;;;20.50;92.80;;;;;;4976873;28;20479;-80
2021/08/11 07:14:55;;;;;;;3.28;2.97;;;20.50;93.00;;;;;;4976940;28;20523;-80
2021/08/11 07:17:23;;;;;;;5.28;3.47;;;20.30;93.50;;;;;;4975490;28;20037;-80
2021/08/11 07:19:50;;;;;;;5.15;3.55;;;20.20;93.70;;;;;;4978616;28;20392;-80
2021/08/11 07:22:19;;;;;;;9.05;8.13;;;20.10;93.70;;;;;;4976465;28;20034;-80
2021/08/11 07:24:47;;;;;;;11.30;10.50;;;20.00;93.90;;;;;;4975415;28;20091;-81
2021/08/11 07:27:14;;;;;;;5.85;5.32;;;19.90;94.00;;;;;;4975753;28;20023;-81
2021/08/11 07:29:41;;;;;;;3.92;3.50;;;19.80;94.40;;;;;;4975951;28;20392;-81
2021/08/11 07:32:09;;;;;;;7.90;4.85;;;19.70;94.40;;;;;;4975266;28;20023;-78
2021/08/11 07:34:36;;;;;;;10.13;6.75;;;19.60;94.80;;;;;;4975738;28;20022;-80
2021/08/11 07:37:04;;;;;;;7.60;5.10;;;19.60;95.00;;;;;;4977547;28;20511;-80
2021/08/11 07:39:31;;;;;;;6.38;4.28;;;19.50;95.20;;;;;;4982604;28;20026;-81
2021/08/11 07:41:59;;;;;;;4.95;4.13;;;19.40;95.10;;;;;;4978673;28;20027;-81
2021/08/11 07:44:26;;;;;;;4.20;3.90;;;19.40;95.50;;;;;;4979686;28;20023;-82
2021/08/11 07:46:53;;;;;;;4.90;4.45;;;19.20;95.60;;;;;;4978365;28;20118;-81
2021/08/11 07:49:20;;;;;;;5.35;4.90;;;19.20;96.00;;;;;;4977651;28;20405;-81
2021/08/11 07:51:48;;;;;;;4.57;3.80;;;19.20;96.10;;;;;;4981901;28;20042;-82
2021/08/11 07:54:15;;;;;;;4.45;3.60;;;19.00;96.10;;;;;;4981792;28;20392;-81
2021/08/11 07:56:43;;;;;;;4.63;4.28;;;19.00;96.50;;;;;;4982283;28;20022;-80
2021/08/11 07:59:10;;;;;;;5.20;4.32;;;18.90;96.70;;;;;;4984435;28;20030;-81
2021/08/11 08:01:38;;;;;;;3.60;3.40;;;18.80;96.80;;;;;;4983874;28;20023;-81
2021/08/11 08:04:05;;;;;;;3.97;3.65;;;18.70;97.00;;;;;;4980930;28;20094;-81
2021/08/11 08:06:32;;;;;;;3.90;3.60;;;18.70;97.30;;;;;;4981395;28;20062;-81
2021/08/11 08:09:00;;;;;;;4.40;3.70;;;18.70;97.40;;;;;;4980287;28;20034;-81
2021/08/11 08:11:27;;;;;;;4.40;3.75;;;18.60;97.50;;;;;;4977621;28;20094;-80
2021/08/11 08:13:55;;;;;;;6.05;4.25;;;18.60;97.40;;;;;;4978885;28;20487;-81
2021/08/11 08:16:22;;;;;;;4.75;3.83;;;18.50;97.70;;;;;;4977962;28;20019;-82
2021/08/11 08:18:49;;;;;;;4.85;4.40;;;18.40;97.90;;;;;;4979413;28;20027;-82
2021/08/11 08:21:16;;;;;;;5.30;3.90;;;18.40;98.00;;;;;;4979044;28;20106;-81
2021/08/11 08:23:44;;;;;;;3.80;3.40;;;18.40;98.10;;;;;;4979069;28;20030;-80
2021/08/11 08:26:11;;;;;;;8.27;7.30;;;18.30;98.20;;;;;;4981471;28;20071;-81
2021/08/11 08:28:39;;;;;;;6.65;6.05;;;18.20;98.70;;;;;;4975121;28;20035;-82
2021/08/11 08:31:06;;;;;;;7.15;6.65;;;18.20;99.00;;;;;;4980192;28;20042;-80
2021/08/11 08:33:34;;;;;;;4.53;4.03;;;18.10;99.00;;;;;;4977107;28;20034;-80
2021/08/11 08:36:01;;;;;;;6.85;6.18;;;18.20;98.90;;;;;;4980459;28;20391;-81
2021/08/11 08:38:28;;;;;;;10.15;7.15;;;18.10;99.10;;;;;;4981157;28;20027;-81
2021/08/11 08:40:56;;;;;;;6.22;5.63;;;18.00;99.40;;;;;;4979413;28;20031;-80
2021/08/11 08:43:23;;;;;;;7.72;5.00;;;17.90;99.30;;;;;;4979525;28;20111;-80
2021/08/11 08:45:54;;;;;;;4.40;3.53;;;17.90;99.50;;;;;;4979729;28;20039;-80
2021/08/11 08:48:22;;;;;;;4.90;4.20;;;17.80;99.60;;;;;;4978897;28;20035;-80
2021/08/11 08:50:50;;;;;;;7.10;4.35;;;17.80;99.90;;;;;;4979004;28;20361;-79
2021/08/11 08:53:25;;;;;;;4.93;3.83;;;17.70;99.90;;;;;;4975488;28;20023;-80
2021/08/11 08:55:53;;;;;;;4.80;3.97;;;17.80;99.90;;;;;;4974322;28;20046;-79
2021/08/11 08:58:21;;;;;;;5.75;4.18;;;17.90;99.90;;;;;;4976697;28;20106;-80
2021/08/11 09:00:49;;;;;;;4.18;3.45;;;18.00;99.50;;;;;;4980742;28;20411;-81
2021/08/11 09:03:16;;;;;;;28.80;25.85;;;18.10;99.50;;;;;;4977796;28;20027;-80
2021/08/11 09:05:45;;;;;;;14.30;12.85;;;18.10;99.50;;;;;;4978272;28;20039;-81
2021/08/11 09:08:12;;;;;;;16.92;15.27;;;18.00;99.50;;;;;;4979353;28;20023;-81
2021/08/11 09:10:41;;;;;;;15.38;13.80;;;18.00;99.70;;;;;;4976446;28;20030;-78
2021/08/11 09:13:20;;;;;;;18.58;16.77;;;18.00;99.70;;;;;;4976658;28;20046;-80
2021/08/11 09:15:50;;;;;;;19.92;17.90;;;18.00;99.70;;;;;;4976639;28;20030;-78
2021/08/11 09:18:22;;;;;;;6.40;5.78;;;18.00;99.80;;;;;;4977569;28;20069;-80
2021/08/11 09:21:12;;;;;;;7.28;6.57;;;18.00;99.60;;;;;;4976266;28;20038;-78
2021/08/11 09:23:44;;;;;;;12.07;10.50;;;18.00;99.60;;;;;;4979417;28;20022;-79
2021/08/11 09:26:13;;;;;;;12.27;9.35;;;18.00;99.60;;;;;;4977314;28;20110;-80
2021/08/11 09:28:43;;;;;;;9.38;5.95;;;18.00;99.80;;;;;;4977299;28;20054;-79
2021/08/11 09:31:31;;;;;;;6.90;5.07;;;18.00;99.60;;;;;;4977832;28;20057;-80
2021/08/11 09:34:01;;;;;;;8.55;5.38;;;17.90;99.60;;;;;;4976694;28;20455;-80
2021/08/11 09:36:48;;;;;;;4.93;4.30;;;18.00;99.80;;;;;;4975885;28;20027;-79
2021/08/11 09:39:18;;;;;;;6.35;4.15;;;17.90;99.70;;;;;;4977540;28;20038;-80
2021/08/11 09:42:05;;;;;;;5.53;4.18;;;17.90;99.70;;;;;;4977101;28;20391;-79
2021/08/11 09:44:34;;;;;;;4.95;4.55;;;17.80;99.70;;;;;;4977448;28;20033;-79
2021/08/11 09:47:17;;;;;;;5.43;4.20;;;17.80;99.70;;;;;;4975996;28;20431;-80
2021/08/11 09:50:04;;;;;;;8.25;3.55;;;17.80;99.70;;;;;;4976696;28;20027;-80
2021/08/11 09:52:52;;;;;;;4.95;4.00;;;17.80;99.70;;;;;;4978071;28;20027;-79
2021/08/11 09:55:20;;;;;;;4.50;4.10;;;17.80;99.60;;;;;;4975356;28;20019;-79
2021/08/11 09:57:48;;;;;;;7.18;3.70;;;17.80;99.70;;;;;;4975804;28;20502;-80
2021/08/11 10:00:15;;;;;;;4.70;3.40;;;17.80;99.60;;;;;;4977944;28;20018;-80
2021/08/11 10:02:43;;;;;;;6.50;3.83;;;17.70;99.80;;;;;;4975483;28;20037;-79
2021/08/11 10:05:36;;;;;;;4.35;3.50;;;17.70;99.80;;;;;;4977857;28;20537;-80
2021/08/11 10:08:05;;;;;;;3.38;3.08;;;17.70;99.50;;;;;;4980137;28;20083;-80
2021/08/11 10:10:46;;;;;;;4.70;3.83;;;17.70;99.40;;;;;;4980944;28;20088;-79
2021/08/11 10:13:21;;;;;;;6.07;3.42;;;17.80;99.70;;;;;;4960652;28;20507;-79
2021/08/11 10:15:48;;;;;;;3.88;3.35;;;17.80;99.40;;;;;;4977186;28;20054;-79
2021/08/11 10:18:30;;;;;;;5.47;3.13;;;17.70;99.70;;;;;;4978405;28;20103;-79
2021/08/11 10:21:02;;;;;;;3.70;2.85;;;17.70;99.40;;;;;;4975667;28;20113;-80
2021/08/11 10:23:31;;;;;;;6.07;3.40;;;17.60;99.50;;;;;;4976968;28;20026;-80
2021/08/11 10:25:58;;;;;;;5.38;3.30;;;17.70;99.60;;;;;;4959930;28;20035;-80
2021/08/11 10:28:26;;;;;;;4.35;3.10;;;17.70;99.50;;;;;;4978164;28;20508;-81
2021/08/11 10:30:54;;;;;;;4.68;3.60;;;17.70;99.50;;;;;;4974691;28;20117;-77
2021/08/11 10:33:21;;;;;;;3.50;3.20;;;17.60;99.70;;;;;;4974992;28;20543;-79
2021/08/11 10:35:50;;;;;;;5.35;3.42;;;17.70;99.30;;;;;;4979067;28;20015;-80
2021/08/11 10:38:18;;;;;;;3.75;3.15;;;17.70;99.50;;;;;;4977400;28;20054;-79
2021/08/11 10:40:52;;;;;;;5.85;3.88;;;17.70;99.30;;;;;;4976265;28;20038;-80
2021/08/11 10:43:20;;;;;;;5.30;3.25;;;17.80;99.40;;;;;;4983104;28;20415;-78
2021/08/11 10:45:59;;;;;;;3.22;2.90;;;17.70;99.30;;;;;;4984336;28;20029;-79
2021/08/11 10:48:27;;;;;;;5.10;3.30;;;17.70;99.80;;;;;;4986897;28;20034;-78
2021/08/11 10:50:55;;;;;;;5.78;3.33;;;17.60;99.80;;;;;;4980345;28;20388;-80
2021/08/11 10:53:24;;;;;;;3.92;3.30;;;17.60;99.70;;;;;;4982116;28;20029;-78
2021/08/11 10:55:57;;;;;;;3.40;2.92;;;17.60;99.60;;;;;;4981314;28;20082;-78
2021/08/11 10:58:44;;;;;;;4.30;2.95;;;17.60;99.60;;;;;;4982541;28;20027;-76
2021/08/11 11:01:33;;;;;;;3.65;3.08;;;17.70;99.60;;;;;;4979390;28;20026;-77
2021/08/11 11:04:02;;;;;;;4.65;3.10;;;17.70;99.60;;;;;;4977876;28;20027;-78
2021/08/11 11:06:53;;;;;;;2.45;2.30;;;17.60;99.70;;;;;;4980877;28;20030;-79
2021/08/11 11:09:22;;;;;;;3.33;3.00;;;17.60;99.70;;;;;;4979777;28;20037;-79
2021/08/11 11:11:50;;;;;;;4.10;3.30;;;17.50;99.90;;;;;;4976210;28;20057;-77
2021/08/11 11:14:58;;;;;;;2.95;2.63;;;17.50;99.90;;;;;;4977843;28;20073;-77
2021/08/11 11:17:54;;;;;;;5.30;3.30;;;17.60;99.60;;;;;;4975856;28;20027;-77
2021/08/11 11:20:22;;;;;;;4.20;3.03;;;17.60;99.90;;;;;;4978140;28;20030;-75
2021/08/11 11:22:57;;;;;;;5.72;3.13;;;17.60;99.90;;;;;;4975318;28;20027;-78
2021/08/11 11:25:56;;;;;;;3.60;3.00;;;17.60;99.90;;;;;;4977258;28;20439;-78
2021/08/11 11:28:52;;;;;;;4.90;3.38;;;17.60;99.90;;;;;;4977151;28;20033;-76
2021/08/11 11:31:38;;;;;;;3.60;3.28;;;17.60;99.90;;;;;;4976308;28;20019;-77
2021/08/11 11:34:33;;;;;;;3.20;2.90;;;17.60;99.90;;;;;;4975744;28;20113;-78
2021/08/11 11:37:01;;;;;;;3.63;3.30;;;17.60;99.90;;;;;;4974213;28;20027;-77
2021/08/11 11:39:55;;;;;;;5.32;3.67;;;17.60;99.90;;;;;;4976520;28;20103;-78
2021/08/11 11:42:28;;;;;;;3.58;3.28;;;17.60;99.80;;;;;;4975511;28;20023;-78
2021/08/11 11:44:58;;;;;;;3.60;3.30;;;17.60;99.90;;;;;;4976012;28;20031;-77
2021/08/11 11:47:37;;;;;;;;;;;17.60;99.80;;;;;;4976073;28;20039;-77
2021/08/11 11:50:20;;;;;;;4.07;3.78;;;17.50;99.90;;;;;;4977350;28;19913;-77
2021/08/11 11:52:51;;;;;;;4.00;3.50;;;17.50;99.90;;;;;;4977494;28;20027;-78
2021/08/11 11:55:36;;;;;;;4.03;3.47;;;17.40;99.90;;;;;;4975398;28;20027;-77
2021/08/11 11:58:15;;;;;;;4.22;3.70;;;17.40;99.90;;;;;;4976977;28;20428;-78
2021/08/11 12:00:44;;;;;;;4.28;3.67;;;17.40;99.90;;;;;;4978934;28;20030;-78
2021/08/11 12:03:13;;;;;;;3.47;3.25;;;17.40;99.90;;;;;;4978406;28;20298;-77
2021/08/11 12:05:51;;;;;;;3.65;3.35;;;17.30;99.90;;;;;;4976974;28;20420;-78
2021/08/11 12:08:22;;;;;;;5.88;3.60;;;17.20;99.90;;;;;;4977872;28;20023;-77
2021/08/11 12:11:07;;;;;;;4.07;3.78;;;17.20;99.90;;;;;;4976717;28;20023;-76
2021/08/11 12:13:45;;;;;;;4.55;3.30;;;17.20;99.90;;;;;;4975344;28;20039;-77
2021/08/11 12:16:15;;;;;;;3.95;3.40;;;17.30;99.90;;;;;;4977265;28;20027;-77
2021/08/11 12:18:45;;;;;;;3.72;3.42;;;17.20;99.90;;;;;;4975843;28;20034;-77
2021/08/11 12:21:16;;;;;;;4.25;3.88;;;17.20;99.90;;;;;;4977123;28;20026;-77
2021/08/11 12:23:43;;;;;;;5.55;3.55;;;17.20;99.90;;;;;;4975675;28;20377;-78
2021/08/11 12:26:14;;;;;;;4.55;3.80;;;17.20;99.90;;;;;;4973985;28;20027;-77
2021/08/11 12:28:48;;;;;;;3.78;3.55;;;17.10;99.90;;;;;;4978372;28;20510;-75
2021/08/11 12:31:24;;;;;;;4.15;3.40;;;17.10;99.90;;;;;;4975419;28;20027;-77
2021/08/11 12:33:54;;;;;;;3.92;3.55;;;17.10;99.90;;;;;;4977540;28;20071;-78
2021/08/11 12:36:31;;;;;;;3.40;3.10;;;17.00;99.90;;;;;;4980093;28;20058;-78
2021/08/11 12:39:15;;;;;;;4.57;3.10;;;17.00;99.90;;;;;;4980043;28;20038;-77
2021/08/11 12:41:43;;;;;;;3.40;3.10;;;17.00;99.90;;;;;;4979588;28;20031;-78
2021/08/11 12:44:21;;;;;;;3.72;3.33;;;17.20;99.90;;;;;;4978838;28;20038;-78
2021/08/11 12:46:58;;;;;;;3.20;3.00;;;17.10;99.90;;;;;;4979295;28;20027;-78
2021/08/11 12:49:33;;;;;;;3.63;3.40;;;17.10;99.90;;;;;;4981296;28;20061;-78
2021/08/11 12:52:09;;;;;;;3.85;3.55;;;17.00;99.90;;;;;;4979630;28;20472;-76
2021/08/11 12:55:04;;;;;;;3.85;3.55;;;17.10;99.90;;;;;;4978178;28;20023;-77
2021/08/11 12:57:41;;;;;;;3.80;3.38;;;17.00;99.90;;;;;;4978344;28;20023;-76
2021/08/11 13:00:10;;;;;;;4.05;3.65;;;16.90;99.90;;;;;;4986405;28;20022;-78
2021/08/11 13:02:38;;;;;;;4.50;4.10;;;16.90;99.90;;;;;;4985309;28;20117;-78
2021/08/11 13:05:19;;;;;;;3.90;3.55;;;16.90;99.90;;;;;;4977952;28;20062;-77